createdAt,value
2017-09-21T00:01:37.201Z,67.10
2017-09-21T00:06:39.805Z,67.00
2017-09-21T00:11:42.401Z,67.10
2017-09-21T00:16:44.993Z,67.40
2017-09-21T00:21:47.602Z,67.20
2017-09-21T00:26:50.220Z,67.50
2017-09-21T00:31:52.813Z,67.10
2017-09-21T00:36:55.449Z,67.70
2017-09-21T00:41:58.810Z,67.70
2017-09-21T00:47:01.448Z,67.80
2017-09-21T00:52:04.062Z,67.80
2017-09-21T00:57:07.452Z,68.00
2017-09-21T01:02:10.070Z,67.90
2017-09-21T01:07:12.657Z,68.10
2017-09-21T01:12:15.253Z,68.30
2017-09-21T01:17:17.843Z,68.50
2017-09-21T01:22:20.433Z,68.00
2017-09-21T01:27:23.041Z,68.30
2017-09-21T01:32:25.681Z,68.60
2017-09-21T01:37:29.058Z,68.30
2017-09-21T01:42:31.659Z,68.30
2017-09-21T01:47:34.261Z,68.60
2017-09-21T01:52:36.849Z,68.90
2017-09-21T01:57:39.458Z,68.80
2017-09-21T02:02:42.069Z,68.80
2017-09-21T02:07:44.678Z,68.60
2017-09-21T02:12:47.303Z,69.00
2017-09-21T02:17:49.897Z,69.20
2017-09-21T02:22:52.485Z,68.90
2017-09-21T02:27:56.212Z,69.30
2017-09-21T02:32:58.795Z,69.40
2017-09-21T02:38:01.583Z,69.30
2017-09-21T02:43:04.186Z,69.40
2017-09-21T02:48:06.826Z,69.40
2017-09-21T02:53:09.420Z,69.30
2017-09-21T02:58:12.021Z,69.60
2017-09-21T03:03:14.609Z,69.60
2017-09-21T03:08:17.216Z,69.20
2017-09-21T03:13:19.826Z,69.60
2017-09-21T03:18:22.421Z,69.40
2017-09-21T03:23:25.804Z,69.50
2017-09-21T03:28:28.408Z,69.50
2017-09-21T03:33:31.010Z,69.50
2017-09-21T03:38:33.637Z,69.80
2017-09-21T03:43:36.994Z,69.50
2017-09-21T03:48:39.593Z,69.50
2017-09-21T03:53:42.186Z,70.40
2017-09-21T03:58:44.804Z,69.60
2017-09-21T04:03:47.426Z,69.70
2017-09-21T04:08:50.021Z,69.80
2017-09-21T04:13:52.630Z,69.90
2017-09-21T04:18:56.003Z,70.00
2017-09-21T04:23:58.601Z,69.90
2017-09-21T04:29:01.209Z,69.70
2017-09-21T04:34:03.809Z,69.60
2017-09-21T04:39:06.417Z,69.70
2017-09-21T04:44:09.040Z,69.30
2017-09-21T04:49:11.686Z,69.80
2017-09-21T04:54:14.306Z,70.00
2017-09-21T04:59:16.924Z,69.90
2017-09-21T05:04:19.577Z,69.90
2017-09-21T05:09:22.193Z,69.90
2017-09-21T05:14:24.801Z,70.20
2017-09-21T05:19:27.420Z,70.10
2017-09-21T05:24:30.034Z,70.10
2017-09-21T05:29:32.657Z,70.10
2017-09-21T05:34:35.285Z,70.10
2017-09-21T05:39:37.930Z,70.30
2017-09-21T05:44:40.573Z,70.00
2017-09-21T05:49:43.200Z,70.10
2017-09-21T05:54:45.826Z,69.80
2017-09-21T05:59:48.452Z,70.20
2017-09-21T06:04:51.138Z,70.20
2017-09-21T06:09:53.744Z,70.10
2017-09-21T06:14:56.366Z,70.30
2017-09-21T06:19:59.759Z,70.50
2017-09-21T06:25:02.409Z,70.50
2017-09-21T06:30:05.096Z,70.80
2017-09-21T06:35:07.750Z,70.70
2017-09-21T06:40:10.357Z,70.80
2017-09-21T06:45:12.990Z,71.00
2017-09-21T06:50:15.633Z,70.90
2017-09-21T06:55:18.250Z,71.00
2017-09-21T07:00:21.735Z,71.90
2017-09-21T07:05:24.380Z,71.90
2017-09-21T07:10:27.012Z,71.90
2017-09-21T07:15:29.653Z,71.40
2017-09-21T07:20:32.304Z,71.40
2017-09-21T07:25:34.953Z,71.00
2017-09-21T07:30:37.618Z,70.90
2017-09-21T07:35:41.010Z,69.60
2017-09-21T07:40:43.669Z,69.60
2017-09-21T07:45:46.322Z,69.10
2017-09-21T07:50:49.713Z,67.70
2017-09-21T07:55:52.328Z,67.60
2017-09-21T08:00:54.994Z,67.60
2017-09-21T08:05:57.646Z,67.30
2017-09-21T08:11:00.273Z,67.10
2017-09-21T08:16:02.908Z,66.50
2017-09-21T08:21:05.591Z,66.30
2017-09-21T08:26:08.234Z,66.20
2017-09-21T08:31:10.881Z,66.30
2017-09-21T08:36:13.526Z,65.90
2017-09-21T08:41:16.176Z,66.10
2017-09-21T08:46:18.822Z,65.60
2017-09-21T08:51:21.441Z,64.70
2017-09-21T08:56:24.853Z,63.50
2017-09-21T09:01:27.514Z,63.30
2017-09-21T09:06:30.144Z,62.30
2017-09-21T09:11:32.766Z,62.10
2017-09-21T09:16:35.389Z,60.30
2017-09-21T09:21:38.025Z,61.40
2017-09-21T09:26:40.679Z,59.80
2017-09-21T09:31:43.288Z,59.30
2017-09-21T09:36:45.906Z,59.10
2017-09-21T09:41:48.529Z,58.40
2017-09-21T09:46:51.190Z,57.50
2017-09-21T09:51:53.778Z,56.90
2017-09-21T09:56:56.476Z,57.60
2017-09-21T10:01:59.949Z,55.50
2017-09-21T10:07:02.618Z,55.10
2017-09-21T10:12:05.238Z,55.20
2017-09-21T10:17:07.879Z,54.30
2017-09-21T10:22:10.566Z,54.30
2017-09-21T10:27:13.184Z,55.40
2017-09-21T10:32:15.793Z,55.50
2017-09-21T10:37:18.433Z,54.70
2017-09-21T10:42:21.071Z,55.60
2017-09-21T10:47:23.700Z,55.70
2017-09-21T10:52:26.314Z,56.50
2017-09-21T10:57:28.937Z,56.90
2017-09-21T11:02:31.563Z,55.50
2017-09-21T11:07:34.169Z,55.20
2017-09-21T11:12:36.836Z,54.80
2017-09-21T11:17:39.461Z,55.50
2017-09-21T11:22:42.092Z,55.10
2017-09-21T11:27:44.746Z,55.20
2017-09-21T11:32:47.348Z,54.90
2017-09-21T11:37:49.951Z,52.30
2017-09-21T11:42:52.619Z,52.00
2017-09-21T11:47:55.978Z,51.60
2017-09-21T11:52:58.593Z,51.50
2017-09-21T11:58:01.214Z,51.90
2017-09-21T12:03:03.858Z,51.60
2017-09-21T12:08:06.490Z,51.80
2017-09-21T12:13:09.168Z,51.80
2017-09-21T12:18:11.789Z,52.20
2017-09-21T12:23:14.390Z,52.40
2017-09-21T12:28:16.991Z,52.80
2017-09-21T12:33:19.621Z,52.30
2017-09-21T12:38:22.240Z,52.70
2017-09-21T12:43:24.858Z,51.50
2017-09-21T12:48:27.483Z,52.10
2017-09-21T12:53:30.099Z,52.00
2017-09-21T12:58:32.729Z,51.30
2017-09-21T13:03:36.114Z,51.80
2017-09-21T13:08:38.732Z,51.80
2017-09-21T13:13:41.441Z,51.90
2017-09-21T13:18:44.810Z,52.30
2017-09-21T13:23:47.461Z,52.30
2017-09-21T13:28:50.059Z,52.20
2017-09-21T13:33:52.664Z,52.40
2017-09-21T13:38:56.050Z,52.10
2017-09-21T13:43:58.833Z,52.00
2017-09-21T13:49:01.469Z,51.60
2017-09-21T13:54:04.865Z,52.30
2017-09-21T13:59:07.571Z,52.20
2017-09-21T14:04:10.215Z,52.80
2017-09-21T14:09:13.652Z,52.80
2017-09-21T14:14:16.307Z,52.80
2017-09-21T14:19:19.760Z,53.00
2017-09-21T14:24:22.386Z,53.00
2017-09-21T14:29:25.032Z,53.10
2017-09-21T14:34:27.744Z,52.90
2017-09-21T14:39:31.142Z,53.60
2017-09-21T14:44:33.765Z,53.60
2017-09-21T14:49:36.403Z,53.30
2017-09-21T14:54:39.048Z,53.30
2017-09-21T14:59:41.684Z,52.80
2017-09-21T15:04:44.304Z,53.00
2017-09-21T15:09:46.906Z,52.80
2017-09-21T15:14:49.526Z,52.70
2017-09-21T15:19:52.189Z,53.00
2017-09-21T15:24:54.800Z,53.40
2017-09-21T15:29:57.427Z,53.30
2017-09-21T15:35:00.087Z,53.00
2017-09-21T15:40:02.781Z,52.70
2017-09-21T15:45:05.423Z,52.70
2017-09-21T15:50:08.038Z,53.90
2017-09-21T15:55:10.638Z,53.60
2017-09-21T16:00:14.025Z,54.00
2017-09-21T16:05:16.748Z,54.00
2017-09-21T16:10:19.401Z,54.20
2017-09-21T16:15:22.058Z,53.90
2017-09-21T16:20:25.535Z,54.80
2017-09-21T16:25:28.215Z,54.20
2017-09-21T16:30:30.901Z,54.40
2017-09-21T16:35:33.536Z,54.70
2017-09-21T16:40:36.212Z,54.90
2017-09-21T16:45:38.898Z,54.80
2017-09-21T16:50:41.528Z,55.20
2017-09-21T16:55:44.135Z,55.40
2017-09-21T17:00:46.794Z,55.40
2017-09-21T17:05:49.413Z,55.50
2017-09-21T17:10:52.817Z,55.80
2017-09-21T17:15:56.268Z,55.70
2017-09-21T17:20:58.858Z,55.60
2017-09-21T17:26:01.448Z,55.80
2017-09-21T17:31:04.100Z,56.00
2017-09-21T17:36:06.741Z,56.10
2017-09-21T17:41:10.333Z,56.50
2017-09-21T17:46:20.220Z,56.70
2017-09-21T17:51:23.034Z,57.80
2017-09-21T17:56:28.022Z,58.60
2017-09-21T18:01:32.587Z,58.80
2017-09-21T18:06:35.350Z,59.50
2017-09-21T18:11:38.811Z,60.10
2017-09-21T18:16:47.433Z,60.00
2017-09-21T18:21:55.147Z,60.60
2017-09-21T18:26:57.977Z,60.40
2017-09-21T18:32:00.869Z,60.60
2017-09-21T18:37:04.382Z,61.00
2017-09-21T18:42:07.070Z,61.00
2017-09-21T18:52:31.421Z,61.00
2017-09-21T19:02:52.058Z,61.10
2017-09-21T19:07:54.913Z,61.20
2017-09-21T19:12:58.405Z,61.90
2017-09-21T19:18:03.509Z,61.90
2017-09-21T19:23:16.302Z,62.10
2017-09-21T19:28:22.166Z,62.20
2017-09-21T19:33:24.870Z,62.50
2017-09-21T19:38:27.502Z,62.70
2017-09-21T19:43:30.177Z,63.00
2017-09-21T19:48:32.884Z,62.90
2017-09-21T19:53:35.543Z,62.90
2017-09-21T19:58:38.933Z,63.00
2017-09-21T20:03:41.809Z,62.90
2017-09-21T20:08:44.410Z,63.10
2017-09-21T20:13:47.095Z,63.80
2017-09-21T20:18:49.714Z,63.10
2017-09-21T20:23:52.370Z,63.00
2017-09-21T20:28:54.991Z,63.20
2017-09-21T20:33:57.610Z,63.20
2017-09-21T20:39:00.223Z,63.50
2017-09-21T20:44:02.880Z,64.40
2017-09-21T20:49:05.623Z,63.60
2017-09-21T20:54:08.556Z,63.80
2017-09-21T20:59:11.185Z,63.80
2017-09-21T21:04:13.847Z,63.90
2017-09-21T21:09:16.521Z,64.00
2017-09-21T21:14:19.184Z,64.30
2017-09-21T21:19:21.816Z,63.90
2017-09-21T21:24:24.445Z,63.80
2017-09-21T21:29:27.083Z,64.20
2017-09-21T21:34:29.693Z,64.00
2017-09-21T21:39:32.554Z,64.00
2017-09-21T21:44:35.947Z,64.40
2017-09-21T21:49:38.558Z,64.30
2017-09-21T21:54:41.172Z,64.20
2017-09-21T21:59:43.781Z,64.40
2017-09-21T22:04:46.375Z,64.60
2017-09-21T22:09:49.003Z,64.50
2017-09-21T22:14:51.606Z,64.60
2017-09-21T22:19:54.965Z,64.70
2017-09-21T22:24:57.565Z,64.70
2017-09-21T22:30:00.155Z,64.90
2017-09-21T22:35:02.765Z,64.90
2017-09-21T22:40:05.341Z,65.00
2017-09-21T22:45:07.977Z,64.70
2017-09-21T22:50:10.619Z,64.50
2017-09-21T22:55:13.989Z,64.80
2017-09-21T23:00:16.593Z,64.70
2017-09-21T23:05:19.201Z,65.00
2017-09-21T23:10:21.781Z,65.20
2017-09-21T23:15:24.373Z,65.30
2017-09-21T23:20:26.994Z,65.50
2017-09-21T23:25:29.589Z,65.50
2017-09-21T23:30:32.204Z,65.70
2017-09-21T23:35:34.802Z,65.70
2017-09-21T23:40:37.627Z,65.80
2017-09-21T23:45:40.231Z,65.90
2017-09-21T23:50:42.838Z,66.80
2017-09-21T23:55:45.438Z,66.00
